KTOL/TOL METAR and TAF weather

Enter ICAO airport designator
Station Type Date Time Source
KTOL METAR 2019/04/18 10:52 UTC NOAA

KTOL 181052Z 20010KT 10SM OVC070 17/09 A2965 RMK AO2 SLP041 T01670094


Station Type Date Time Source
KTOL Decoded METAR 2019/04/18 10:52 UTC NOAA

TOLEDO EXPRESS AIRPORT, OH, United States (KTOL) 41-35N 083-48W 210M
Apr 18, 2019 - 06:52 AM EDT / 2019.04.18 1052 UTC
Wind: from the SSW (200 degrees) at 12 MPH (10 KT):0
Visibility: 10 mile(s):0
Sky conditions: overcast
Temperature: 62.1 F (16.7 C)
Dew Point: 48.9 F (9.4 C)
Relative Humidity: 62%
Pressure (altimeter): 29.65 in. Hg (1004 hPa)
ob: KTOL 181052Z 20010KT 10SM OVC070 17/09 A2965 RMK AO2 SLP041 T01670094
cycle: 11

Station Type Date Time Source
KTOL TAF 2019/04/18 08:30 UTC NOAA

TAF
AMD KTOL 180827Z 1808/1906 18010G18KT P6SM SCT080
FM181300 21012G22KT 5SM -SHRA OVC025
TEMPO 1814/1815 P6SM OVC050
FM190000 29011G20KT 3SM -SHRA OVC020

Example: see airport list